Time;durP1;ratioP1;P1;durP2;ratioP2;P2;SDS_P1;SDS_P2;PMS_P1;PMS_P2;Temp;Humidity;BMP_temperature;BMP_pressure;BME280_temperature;BME280_humidity;BME280_pressure;Samples;Min_cycle;Max_cycle;Signal;HPM_P1;HPM_P2
2023/09/01 00:02:13;;;;;;;;;;;;;;;11.35;83.21;100675.65;105563;1273;61388;-82
2023/09/01 00:04:39;;;;;;;;;;;;;;;11.35;83.39;100676.01;105489;1268;125877;-83
2023/09/01 00:07:06;;;;;;;;;;;;;;;11.34;83.39;100671.59;105864;1270;74701;-79
2023/09/01 00:09:32;;;;;;;;;;;;;;;11.34;83.32;100674.04;105713;1270;61286;-78
2023/09/01 00:11:59;;;;;;;;;;;;;;;11.32;83.29;100674.17;105716;1274;125061;-81
2023/09/01 00:14:25;;;;;;;;;;;;;;;11.31;83.30;100671.35;105918;1270;61282;-80
2023/09/01 00:16:52;;;;;;;;;;;;;;;11.30;83.33;100672.92;105822;1271;125198;-79
2023/09/01 00:19:20;;;;;;;;;;;;;;;11.30;83.33;100669.56;105701;1270;74614;-81
2023/09/01 00:21:47;;;;;;;;;;;;;;;11.28;83.32;100675.16;105813;1270;66072;-82
2023/09/01 00:24:14;;;;;;;;;;;;;;;11.27;83.26;100670.20;105653;1269;125358;-81
2023/09/01 00:26:40;;;;;;;;;;;;;;;11.25;83.30;100671.23;105875;1269;59267;-83
2023/09/01 00:29:07;;;;;;;;;;;;;;;11.24;83.27;100670.31;104908;1270;124950;-80
2023/09/01 00:31:33;;;;;;;;;;;;;;;11.22;83.29;100669.76;105089;1273;61293;-79
2023/09/01 00:34:00;;;;;;;;;;;;;;;11.20;83.22;100673.23;105061;1270;65279;-80
2023/09/01 00:36:26;;;;;;;;;;;;;;;11.18;83.16;100672.48;105165;1272;124833;-80
2023/09/01 00:38:53;;;;;;;;;;;;;;;11.16;83.30;100672.45;105009;1270;61397;-80
2023/09/01 00:41:20;;;;;;;;;;;;;;;11.15;83.31;100667.67;104945;1270;125609;-81
2023/09/01 00:43:46;;;;;;;;;;;;;;;11.13;83.20;100663.60;105095;1273;74730;-80
2023/09/01 00:46:15;;;;;;;;;;;;;;;11.11;83.16;100663.89;104951;1273;125182;-81
2023/09/01 00:48:42;;;;;;;;;;;;;;;11.09;83.23;100664.91;105896;1271;73169;-82
2023/09/01 00:51:11;;;;;;;;;;;;;;;11.06;83.21;100665.90;105819;1269;61286;-81
2023/09/01 00:53:41;;;;;;;;;;;;;;;11.04;83.22;100669.19;105617;1271;127765;-81
2023/09/01 00:56:07;;;;;;;;;;;;;;;11.02;83.33;100669.52;105104;1268;61375;-81
2023/09/01 00:58:34;;;;;;;;;;;;;;;11.02;83.35;100672.48;104960;1276;124994;-81
2023/09/01 01:01:04;;;;;;;;;;;;;;;11.02;83.47;100669.67;105054;1268;61276;-82
2023/09/01 01:03:31;;;;;;;;;;;;;;;11.01;83.43;100672.11;105051;1270;61418;-77
2023/09/01 01:06:13;;;;;;;;;;;;;;;11.00;83.55;100669.83;104749;1276;124751;-78
2023/09/01 01:08:42;;;;;;;;;;;;;;;11.01;83.55;100669.65;105688;1270;74690;-77
2023/09/01 01:11:13;;;;;;;;;;;;;;;11.00;83.72;100668.58;105845;1269;124810;-77
2023/09/01 01:13:44;;;;;;;;;;;;;;;10.98;83.59;100669.08;105838;1269;72758;-78
2023/09/01 01:16:10;;;;;;;;;;;;;;;10.98;83.66;100666.27;105681;1270;63438;-78
2023/09/01 01:18:37;;;;;;;;;;;;;;;10.98;83.65;100668.53;105891;1270;61266;-78
2023/09/01 01:21:08;;;;;;;;;;;;;;;10.97;83.64;100668.34;105836;1270;74435;-78
2023/09/01 01:23:35;;;;;;;;;;;;;;;10.97;83.71;100664.65;105829;1273;125139;-79
2023/09/01 01:26:01;;;;;;;;;;;;;;;10.97;83.70;100665.35;105701;1270;61294;-78
2023/09/01 01:28:28;;;;;;;;;;;;;;;10.96;83.65;100663.25;105769;1269;125207;-78
2023/09/01 01:30:54;;;;;;;;;;;;;;;10.94;83.68;100662.83;105678;1270;59846;-77
2023/09/01 01:33:30;;;;;;;;;;;;;;;10.92;83.67;100664.37;105735;1267;59681;-79
2023/09/01 01:36:16;;;;;;;;;;;;;;;10.92;83.74;100668.04;105748;1270;125163;-83
2023/09/01 01:38:45;;;;;;;;;;;;;;;10.91;83.85;100674.52;105093;1268;70837;-83
2023/09/01 01:41:14;;;;;;;;;;;;;;;10.91;83.86;100679.27;105714;1270;124879;-81
2023/09/01 01:43:42;;;;;;;;;;;;;;;10.91;83.92;100681.20;106886;1270;60597;-81
2023/09/01 01:46:11;;;;;;;;;;;;;;;10.91;83.97;100685.41;105024;1273;72497;-82
2023/09/01 01:48:38;;;;;;;;;;;;;;;10.90;83.96;100685.20;105043;1270;66314;-82
2023/09/01 01:51:07;;;;;;;;;;;;;;;10.91;83.94;100682.77;105961;1273;72758;-83
2023/09/01 01:53:34;;;;;;;;;;;;;;;10.90;84.01;100680.83;105509;1270;125915;-83
2023/09/01 01:56:03;;;;;;;;;;;;;;;10.89;84.07;100676.42;105858;1269;61409;-83
2023/09/01 01:58:30;;;;;;;;;;;;;;;10.89;83.98;100673.08;106063;1270;125322;-83
2023/09/01 02:00:56;;;;;;;;;;;;;;;10.87;83.94;100671.81;105929;1270;64739;-83
2023/09/01 02:03:25;;;;;;;;;;;;;;;10.86;83.98;100673.89;105884;1268;72833;-83
2023/09/01 02:05:51;;;;;;;;;;;;;;;10.87;84.02;100668.98;105720;1273;124803;-82
2023/09/01 02:08:18;;;;;;;;;;;;;;;10.86;83.98;100666.69;105684;1270;61361;-81
2023/09/01 02:10:47;;;;;;;;;;;;;;;10.86;84.13;100669.66;105896;1270;125124;-81
2023/09/01 02:13:13;;;;;;;;;;;;;;;10.85;84.16;100673.52;104988;1268;63879;-82
2023/09/01 02:15:49;;;;;;;;;;;;;;;10.86;84.19;100673.52;105018;1270;73205;-78
2023/09/01 02:18:17;;;;;;;;;;;;;;;10.86;84.24;100678.09;105763;1272;125548;-78
2023/09/01 02:20:43;;;;;;;;;;;;;;;10.86;84.36;100681.61;105156;1272;61260;-80
2023/09/01 02:23:12;;;;;;;;;;;;;;;10.86;84.34;100682.14;104808;1270;125295;-82
2023/09/01 02:25:39;;;;;;;;;;;;;;;10.85;84.33;100682.30;105983;1270;66105;-76
2023/09/01 02:28:05;;;;;;;;;;;;;;;10.84;84.26;100684.73;105058;1270;59430;-77
2023/09/01 02:30:34;;;;;;;;;;;;;;;10.82;84.22;100683.27;104959;1267;125688;-81
2023/09/01 02:33:01;;;;;;;;;;;;;;;10.80;84.30;100682.70;104954;1270;61288;-77
2023/09/01 02:35:28;;;;;;;;;;;;;;;10.78;84.35;100683.54;104948;1271;125353;-77
2023/09/01 02:37:54;;;;;;;;;;;;;;;10.77;84.33;100685.80;104967;1270;61349;-77
2023/09/01 02:40:24;;;;;;;;;;;;;;;10.77;84.50;100686.13;105007;1270;125527;-76
2023/09/01 02:42:53;;;;;;;;;;;;;;;10.78;84.69;100693.73;105098;1273;61163;-77
2023/09/01 02:45:19;;;;;;;;;;;;;;;10.84;84.94;100692.27;105112;1268;61302;-76
2023/09/01 02:47:46;;;;;;;;;;;;;;;10.91;85.13;100684.71;104960;1270;126434;-75
2023/09/01 02:50:12;;;;;;;;;;;;;;;10.97;85.13;100681.50;104989;1271;65089;-77
2023/09/01 02:52:41;;;;;;;;;;;;;;;10.99;85.02;100676.80;104923;1273;125510;-76
2023/09/01 02:55:08;;;;;;;;;;;;;;;11.00;85.00;100668.22;105056;1269;61351;-77
2023/09/01 02:57:35;;;;;;;;;;;;;;;11.01;84.98;100669.64;104989;1270;61368;-78
2023/09/01 03:00:14;;;;;;;;;;;;;;;11.01;84.92;100672.47;105765;1268;125465;-77
2023/09/01 03:02:42;;;;;;;;;;;;;;;11.01;84.96;100682.83;105846;1273;65030;-78
2023/09/01 03:05:10;;;;;;;;;;;;;;;11.02;85.03;100684.08;104992;1270;125421;-77
2023/09/01 03:07:40;;;;;;;;;;;;;;;11.02;85.03;100686.72;105031;1269;61445;-77
2023/09/01 03:10:08;;;;;;;;;;;;;;;11.04;85.16;100692.56;104813;1270;61403;-77
2023/09/01 03:12:37;;;;;;;;;;;;;;;11.10;85.30;100695.14;105014;1270;124617;-77
2023/09/01 03:15:05;;;;;;;;;;;;;;;11.20;85.64;100704.66;105067;1269;65317;-78
2023/09/01 03:17:31;;;;;;;;;;;;;;;11.34;85.75;100709.52;104967;1270;125582;-77
2023/09/01 03:19:58;;;;;;;;;;;;;;;11.48;85.85;100707.35;105018;1273;61160;-77
2023/09/01 03:22:24;;;;;;;;;;;;;;;11.61;85.91;100711.83;104943;1273;125614;-76
2023/09/01 03:24:52;;;;;;;;;;;;;;;11.74;85.81;100710.69;105103;1273;61410;-77
2023/09/01 03:27:18;;;;;;;;;;;;;;;11.86;85.79;100703.54;105076;1270;64141;-77
2023/09/01 03:29:45;;;;;;;;;;;;;;;11.96;85.68;100697.08;104975;1270;125138;-77
2023/09/01 03:32:12;;;;;;;;;;;;;;;12.06;85.58;100692.51;105066;1270;61403;-80
2023/09/01 03:34:38;;;;;;;;;;;;;;;12.16;85.47;100688.63;104819;1270;125547;-77
2023/09/01 03:37:08;;;;;;;;;;;;;;;12.25;85.37;100691.27;104940;1276;74533;-76
2023/09/01 03:39:34;;;;;;;;;;;;;;;12.35;85.32;100692.12;104997;1270;66384;-81
2023/09/01 03:42:01;;;;;;;;;;;;;;;12.41;85.07;100694.34;104937;1268;124928;-81
2023/09/01 03:44:27;;;;;;;;;;;;;;;12.46;85.07;100689.30;105042;1272;61608;-83
2023/09/01 03:46:54;;;;;;;;;;;;;;;12.50;84.71;100686.56;105463;1273;125218;-80
2023/09/01 03:49:21;;;;;;;;;;;;;;;12.52;84.60;100686.77;105025;1270;74455;-81
2023/09/01 03:51:47;;;;;;;;;;;;;;;12.50;84.27;100688.33;104969;1270;61406;-81
2023/09/01 03:54:33;;;;;;;;;;;;;;;12.42;83.94;100685.03;108058;1269;124982;-81
2023/09/01 03:57:00;;;;;;;;;;;;;;;12.35;83.81;100682.27;105037;1270;61336;-81
2023/09/01 03:59:26;;;;;;;;;;;;;;;12.31;83.80;100688.02;104891;1270;125347;-78
2023/09/01 04:01:53;;;;;;;;;;;;;;;12.29;83.91;100688.85;105095;1271;61071;-81
2023/09/01 04:04:19;;;;;;;;;;;;;;;12.32;83.94;100692.77;105184;1270;124959;-81
2023/09/01 04:06:46;;;;;;;;;;;;;;;12.36;84.15;100692.66;105096;1272;61428;-81
2023/09/01 04:09:13;;;;;;;;;;;;;;;12.40;84.02;100689.58;105088;1270;61406;-76
2023/09/01 04:11:39;;;;;;;;;;;;;;;12.46;84.12;100692.49;105318;1271;125488;-76
2023/09/01 04:14:08;;;;;;;;;;;;;;;12.56;84.09;100693.00;105956;1270;61265;-80
2023/09/01 04:16:35;;;;;;;;;;;;;;;12.59;83.69;100693.92;104993;1270;124942;-80
2023/09/01 04:19:02;;;;;;;;;;;;;;;12.61;83.72;100690.98;105139;1271;61323;-76
2023/09/01 04:21:28;;;;;;;;;;;;;;;12.65;83.50;100690.67;105035;1270;61282;-77
2023/09/01 04:23:55;;;;;;;;;;;;;;;12.68;83.40;100690.54;104991;1272;124981;-78
2023/09/01 04:26:22;;;;;;;;;;;;;;;12.80;83.72;100689.67;104999;1271;74494;-77
2023/09/01 04:28:48;;;;;;;;;;;;;;;13.40;85.07;100691.56;104987;1268;125421;-80
2023/09/01 04:31:32;;;;;;;;;;;;;;;14.27;85.37;100685.09;104937;1270;71077;-80
2023/09/01 04:33:58;;;;;;;;;;;;;;;15.26;84.78;100686.32;105017;1276;61284;-77
2023/09/01 04:36:25;;;;;;;;;;;;;;;15.73;82.57;100684.05;105018;1270;125192;-78
2023/09/01 04:38:52;;;;;;;;;;;;;;;15.96;81.45;100686.40;105088;1267;74455;-79
2023/09/01 04:41:19;;;;;;;;;;;;;;;16.10;80.48;100688.20;105014;1271;124911;-81
2023/09/01 04:43:45;;;;;;;;;;;;;;;16.54;80.44;100691.05;105861;1268;61332;-81
2023/09/01 04:46:12;;;;;;;;;;;;;;;17.12;80.27;100694.53;105727;1271;61351;-78
2023/09/01 04:48:38;;;;;;;;;;;;;;;17.48;78.69;100696.19;105860;1270;125137;-78
2023/09/01 04:51:04;;;;;;;;;;;;;;;17.05;76.39;100702.53;105774;1270;61297;-76
2023/09/01 04:53:31;;;;;;;;;;;;;;;16.51;75.91;100701.15;105448;1270;125066;-76
2023/09/01 04:55:58;;;;;;;;;;;;;;;16.08;75.80;100703.61;105120;1268;73479;-76
2023/09/01 04:58:24;;;;;;;;;;;;;;;15.69;75.96;100702.25;104962;1270;125165;-76
2023/09/01 05:00:57;;;;;;;;;;;;;;;15.46;76.29;100696.48;105044;1273;61425;-77
2023/09/01 05:03:24;;;;;;;;;;;;;;;15.24;76.37;100689.14;104975;1271;74484;-78
2023/09/01 05:05:50;;;;;;;;;;;;;;;15.14;76.71;100688.91;105734;1269;124197;-78
2023/09/01 05:08:17;;;;;;;;;;;;;;;15.23;77.30;100686.13;105836;1270;72521;-78
2023/09/01 05:10:43;;;;;;;;;;;;;;;15.65;77.85;100689.32;105610;1272;124349;-78
2023/09/01 05:13:10;;;;;;;;;;;;;;;15.95;76.83;100688.89;105029;1270;61416;-78
2023/09/01 05:15:36;;;;;;;;;;;;;;;15.93;76.22;100688.17;105079;1268;61381;-77
2023/09/01 05:18:03;;;;;;;;;;;;;;;15.93;76.04;100688.52;104960;1268;124875;-76
2023/09/01 05:20:29;;;;;;;;;;;;;;;15.88;75.88;100690.11;105078;1268;71103;-77
2023/09/01 05:22:57;;;;;;;;;;;;;;;15.84;75.83;100687.27;104881;1275;125250;-77
2023/09/01 05:25:24;;;;;;;;;;;;;;;15.74;75.51;100688.11;105059;1273;60374;-81
2023/09/01 05:27:50;;;;;;;;;;;;;;;15.65;75.62;100686.13;106001;1270;74743;-78
2023/09/01 05:30:20;;;;;;;;;;;;;;;15.66;75.67;100684.36;105894;1269;125526;-80
2023/09/01 05:32:46;;;;;;;;;;;;;;;15.64;75.57;100683.47;105888;1269;72735;-83
2023/09/01 05:35:13;;;;;;;;;;;;;;;15.69;75.74;100682.59;105853;1270;124785;-80
2023/09/01 05:37:40;;;;;;;;;;;;;;;15.76;75.71;100687.77;105806;1270;61297;-79
2023/09/01 05:40:07;;;;;;;;;;;;;;;15.90;75.82;100687.64;105945;1270;74741;-79
2023/09/01 05:42:33;;;;;;;;;;;;;;;16.03;75.55;100689.79;105815;1273;125584;-78
2023/09/01 05:45:00;;;;;;;;;;;;;;;16.05;75.31;100691.92;105215;1270;71818;-82
2023/09/01 05:47:26;;;;;;;;;;;;;;;16.16;75.30;100696.35;105474;1269;124863;-81
2023/09/01 05:49:53;;;;;;;;;;;;;;;16.31;75.13;100699.02;105067;1270;61330;-84
2023/09/01 05:52:19;;;;;;;;;;;;;;;16.43;75.09;100696.19;105837;1271;124960;-84
2023/09/01 05:54:46;;;;;;;;;;;;;;;16.58;74.71;100693.54;105943;1270;61426;-83
2023/09/01 05:57:12;;;;;;;;;;;;;;;16.63;74.27;100691.58;105968;1267;61266;-82
2023/09/01 05:59:39;;;;;;;;;;;;;;;16.61;74.05;100689.81;105863;1267;124101;-83
2023/09/01 06:02:05;;;;;;;;;;;;;;;16.57;73.82;100689.81;105956;1268;59288;-83
2023/09/01 06:04:32;;;;;;;;;;;;;;;16.51;73.81;100687.35;105452;1270;124438;-81
2023/09/01 06:06:58;;;;;;;;;;;;;;;16.42;73.53;100688.94;105049;1268;59731;-82
2023/09/01 06:09:25;;;;;;;;;;;;;;;16.34;73.52;100696.02;105031;1270;71420;-82
2023/09/01 06:11:52;;;;;;;;;;;;;;;16.31;73.79;100699.02;104912;1273;124148;-82
2023/09/01 06:14:19;;;;;;;;;;;;;;;16.29;73.71;100703.98;105597;1270;60305;-82
2023/09/01 06:16:47;;;;;;;;;;;;;;;16.25;73.59;100702.74;105902;1270;125138;-82
2023/09/01 06:19:13;;;;;;;;;;;;;;;16.22;73.69;100702.38;105884;1270;65914;-82
2023/09/01 06:21:40;;;;;;;;;;;;;;;16.23;73.77;100702.55;105957;1270;71308;-82
2023/09/01 06:24:07;;;;;;;;;;;;;;;16.27;73.73;100701.33;105837;1270;125425;-83
2023/09/01 06:26:33;;;;;;;;;;;;;;;16.25;73.46;100703.79;105911;1271;61378;-83
2023/09/01 06:29:09;;;;;;;;;;;;;;;16.30;73.57;100700.80;105748;1271;126319;-83
2023/09/01 06:31:36;;;;;;;;;;;;;;;16.45;73.82;100702.39;105792;1270;66311;-82
2023/09/01 06:34:03;;;;;;;;;;;;;;;16.60;73.91;100694.43;105716;1271;72742;-87
2023/09/01 06:36:29;;;;;;;;;;;;;;;16.77;73.58;100703.61;105666;1273;124798;-82
2023/09/01 06:38:57;;;;;;;;;;;;;;;16.79;73.05;100706.80;105937;1270;61923;-82
2023/09/01 06:41:23;;;;;;;;;;;;;;;16.87;73.10;100709.66;105859;1270;124241;-82
2023/09/01 06:43:50;;;;;;;;;;;;;;;16.95;72.77;100707.52;105794;1270;61275;-82
2023/09/01 06:46:16;;;;;;;;;;;;;;;16.89;72.46;100710.55;105753;1269;124452;-80
2023/09/01 06:48:48;;;;;;;;;;;;;;;16.84;72.50;100708.24;105890;1268;61338;-82
2023/09/01 06:51:15;;;;;;;;;;;;;;;16.89;72.52;100712.15;105788;1269;59400;-90
2023/09/01 06:53:42;;;;;;;;;;;;;;;16.84;72.06;100708.77;105644;1270;124316;-87
2023/09/01 06:56:08;;;;;;;;;;;;;;;16.77;72.08;100712.84;105966;1271;66107;-84
2023/09/01 06:58:35;;;;;;;;;;;;;;;16.92;72.58;100713.90;105842;1269;126361;-77
2023/09/01 07:01:07;;;;;;;;;;;;;;;17.22;72.74;100713.83;107942;1270;59120;-78
2023/09/01 07:03:34;;;;;;;;;;;;;;;17.59;72.53;100710.15;106219;1270;61297;-82
2023/09/01 07:06:01;;;;;;;;;;;;;;;17.90;72.39;100702.04;105713;1273;126939;-81
2023/09/01 07:08:28;;;;;;;;;;;;;;;18.21;72.07;100705.21;105887;1269;66321;-81
2023/09/01 07:10:59;;;;;;;;;;;;;;;18.44;71.56;100706.64;105701;1270;124665;-80
2023/09/01 07:13:25;;;;;;;;;;;;;;;18.54;70.92;100705.14;105965;1270;61320;-80
2023/09/01 07:15:52;;;;;;;;;;;;;;;18.54;70.50;100704.77;105915;1268;61268;-79
2023/09/01 07:18:18;;;;;;;;;;;;;;;18.50;70.14;100705.17;105445;1270;129698;-80
2023/09/01 07:20:45;;;;;;;;;;;;;;;18.51;70.02;100708.02;105917;1273;61302;-82
2023/09/01 07:23:12;;;;;;;;;;;;;;;18.43;69.60;100697.41;105790;1270;125008;-76
2023/09/01 07:25:44;;;;;;;;;;;;;;;18.33;69.59;100692.70;105013;1271;61222;-76
2023/09/01 07:28:11;;;;;;;;;;;;;;;18.31;69.65;100691.29;105731;1273;61202;-76
2023/09/01 07:30:38;;;;;;;;;;;;;;;18.45;69.98;100692.41;105819;1267;123955;-79
2023/09/01 07:33:04;;;;;;;;;;;;;;;18.66;69.81;100690.64;105882;1270;64974;-78
2023/09/01 07:35:32;;;;;;;;;;;;;;;18.81;69.48;100695.69;105711;1270;124157;-78
2023/09/01 07:37:58;;;;;;;;;;;;;;;18.78;69.05;100699.23;105826;1270;59402;-78
2023/09/01 07:40:26;;;;;;;;;;;;;;;18.75;68.97;100697.48;105867;1270;124415;-79
2023/09/01 07:42:52;;;;;;;;;;;;;;;18.68;68.81;100700.04;105828;1273;74768;-76
2023/09/01 07:45:19;;;;;;;;;;;;;;;18.59;68.63;100699.23;105694;1268;247646;-79
2023/09/01 07:47:45;;;;;;;;;;;;;;;18.57;68.76;100692.67;105917;1272;125441;-77
2023/09/01 07:50:12;;;;;;;;;;;;;;;18.68;68.85;100696.50;106291;1270;59557;-78
2023/09/01 07:52:38;;;;;;;;;;;;;;;18.63;68.27;100699.37;106119;1270;126256;-78
2023/09/01 07:55:05;;;;;;;;;;;;;;;18.49;68.21;100708.74;106022;1270;61323;-76
2023/09/01 07:57:32;;;;;;;;;;;;;;;18.37;68.13;100712.55;105200;1270;65425;-78
2023/09/01 07:59:58;;;;;;;;;;;;;;;18.30;68.28;100714.39;105798;1271;124117;-77
2023/09/01 08:02:25;;;;;;;;;;;;;;;18.29;68.30;100721.14;106011;1270;61060;-77
2023/09/01 08:04:52;;;;;;;;;;;;;;;18.35;68.40;100720.74;106385;1270;125097;-77
2023/09/01 08:07:18;;;;;;;;;;;;;;;18.51;68.48;100719.73;107519;1270;72720;-79
2023/09/01 08:09:48;;;;;;;;;;;;;;;18.66;68.39;100722.27;105896;1270;65478;-80
2023/09/01 08:12:14;;;;;;;;;;;;;;;18.81;68.09;100720.55;105474;1270;124199;-81
2023/09/01 08:14:41;;;;;;;;;;;;;;;18.95;68.13;100728.26;105739;1273;61227;-78
2023/09/01 08:17:07;;;;;;;;;;;;;;;19.13;68.08;100729.48;106023;1269;124350;-79
2023/09/01 08:19:34;;;;;;;;;;;;;;;19.31;67.64;100730.20;105131;1271;74368;-79
2023/09/01 08:22:01;;;;;;;;;;;;;;;19.40;67.65;100728.31;105802;1271;64978;-80
2023/09/01 08:24:28;;;;;;;;;;;;;;;19.52;67.21;100729.76;105934;1270;124118;-80
2023/09/01 08:26:55;;;;;;;;;;;;;;;19.58;67.06;100732.19;106008;1271;61316;-79
2023/09/01 08:29:22;;;;;;;;;;;;;;;19.63;66.64;100729.45;105851;1271;124949;-78
2023/09/01 08:31:48;;;;;;;;;;;;;;;19.67;66.51;100732.06;106002;1270;75561;-79
2023/09/01 08:34:15;;;;;;;;;;;;;;;19.65;66.28;100738.33;105932;1271;61385;-81
2023/09/01 08:36:43;;;;;;;;;;;;;;;19.63;65.95;100737.46;105855;1271;124129;-76
2023/09/01 08:39:09;;;;;;;;;;;;;;;19.48;65.84;100742.10;105186;1273;60025;-76
2023/09/01 08:41:36;;;;;;;;;;;;;;;19.34;65.81;100738.16;104985;1271;124542;-77
2023/09/01 08:44:04;;;;;;;;;;;;;;;19.25;65.75;100737.20;104955;1274;61326;-77
2023/09/01 08:46:31;;;;;;;;;;;;;;;19.09;65.66;100733.27;104942;1271;124490;-80
2023/09/01 08:48:57;;;;;;;;;;;;;;;18.97;65.80;100733.92;105030;1271;72478;-81
2023/09/01 08:51:34;;;;;;;;;;;;;;;18.83;65.79;100732.81;106032;1268;59754;-81
2023/09/01 08:54:06;;;;;;;;;;;;;;;18.60;65.73;100736.35;105725;1269;125019;-79
2023/09/01 08:56:34;;;;;;;;;;;;;;;18.39;65.86;100737.05;105867;1269;74679;-82
2023/09/01 08:59:00;;;;;;;;;;;;;;;18.21;66.18;100734.88;106053;1268;125411;-82
2023/09/01 09:01:27;;;;;;;;;;;;;;;18.09;66.20;100738.15;106095;1270;72579;-83
2023/09/01 09:03:54;;;;;;;;;;;;;;;17.95;66.37;100742.85;105936;1270;61295;-83
2023/09/01 09:06:30;;;;;;;;;;;;;;;17.84;66.63;100742.52;105798;1271;124481;-82
2023/09/01 09:09:03;;;;;;;;;;;;;;;17.77;66.84;100740.23;105926;1268;74720;-82
2023/09/01 09:11:29;;;;;;;;;;;;;;;17.73;67.10;100740.80;106856;1270;124177;-82
2023/09/01 09:13:56;;;;;;;;;;;;;;;17.77;67.42;100734.92;106094;1270;61273;-83
2023/09/01 09:16:22;;;;;;;;;;;;;;;17.84;67.39;100737.39;105917;1269;125556;-81
2023/09/01 09:18:49;;;;;;;;;;;;;;;17.82;67.29;100735.44;105813;1270;61281;-83
2023/09/01 09:21:23;;;;;;;;;;;;;;;17.76;67.48;100733.33;105936;1271;74730;-83
2023/09/01 09:23:50;;;;;;;;;;;;;;;17.68;67.37;100729.27;105741;1271;124772;-82
2023/09/01 09:26:16;;;;;;;;;;;;;;;17.56;67.59;100730.21;105898;1273;71407;-82
2023/09/01 09:28:44;;;;;;;;;;;;;;;17.43;67.78;100736.48;105993;1271;124526;-81
2023/09/01 09:31:10;;;;;;;;;;;;;;;17.38;67.93;100742.34;105946;1273;61343;-83
2023/09/01 09:33:38;;;;;;;;;;;;;;;17.32;68.14;100747.16;105648;1270;74760;-83
2023/09/01 09:36:05;;;;;;;;;;;;;;;17.26;68.51;100750.90;105910;1271;124497;-82
2023/09/01 09:38:41;;;;;;;;;;;;;;;17.15;68.48;100757.11;105870;1271;71459;-79
2023/09/01 09:41:07;;;;;;;;;;;;;;;16.99;68.60;100755.55;105817;1275;125001;-80
2023/09/01 09:43:54;;;;;;;;;;;;;;;16.80;68.91;100757.13;105930;1270;61323;-80
2023/09/01 09:46:21;;;;;;;;;;;;;;;16.62;69.18;100759.96;105867;1269;74481;-80
2023/09/01 09:48:49;;;;;;;;;;;;;;;16.47;69.55;100759.95;105981;1270;66296;-81
2023/09/01 09:51:15;;;;;;;;;;;;;;;16.36;69.93;100763.84;105794;1275;71998;-81
2023/09/01 09:53:42;;;;;;;;;;;;;;;16.29;70.29;100763.30;105700;1270;124817;-82
2023/09/01 09:56:30;;;;;;;;;;;;;;;16.19;70.49;100761.88;105765;1270;59939;-82
2023/09/01 09:58:57;;;;;;;;;;;;;;;16.11;70.85;100762.91;105877;1270;125263;-82
2023/09/01 10:01:24;;;;;;;;;;;;;;;16.06;71.19;100764.67;106164;1273;68436;-82
2023/09/01 10:03:50;;;;;;;;;;;;;;;16.01;71.44;100764.48;105943;1271;71445;-82
2023/09/01 10:06:17;;;;;;;;;;;;;;;15.99;71.65;100763.77;105726;1270;124107;-82
2023/09/01 10:08:44;;;;;;;;;;;;;;;15.99;72.03;100763.06;105907;1269;59906;-81
2023/09/01 10:11:14;;;;;;;;;;;;;;;16.01;72.25;100763.60;105773;1270;124295;-81
2023/09/01 10:13:43;;;;;;;;;;;;;;;16.05;72.56;100766.08;105986;1273;66087;-79
2023/09/01 10:16:09;;;;;;;;;;;;;;;16.06;72.56;100764.85;105202;1269;72789;-79
2023/09/01 10:18:36;;;;;;;;;;;;;;;16.08;72.78;100769.63;104876;1270;126881;-83
2023/09/01 10:21:03;;;;;;;;;;;;;;;16.08;72.88;100768.92;105921;1272;61285;-80
2023/09/01 10:23:32;;;;;;;;;;;;;;;16.06;73.01;100767.33;106014;1271;124365;-83
2023/09/01 10:26:11;;;;;;;;;;;;;;;16.03;73.29;100766.07;105833;1271;66449;-84
2023/09/01 10:29:04;;;;;;;;;;;;;;;16.02;73.35;100767.48;105511;1270;125367;-83
2023/09/01 10:31:32;;;;;;;;;;;;;;;15.99;73.51;100770.66;105683;1274;59654;-85
2023/09/01 10:34:12;;;;;;;;;;;;;;;15.93;73.75;100769.77;105769;1270;61380;-84
2023/09/01 10:36:40;;;;;;;;;;;;;;;15.89;73.85;100772.75;105924;1272;125020;-83
2023/09/01 10:39:16;;;;;;;;;;;;;;;15.88;74.21;100771.70;105789;1276;66138;-81
2023/09/01 10:42:02;;;;;;;;;;;;;;;15.93;74.37;100773.30;105914;1268;125176;-81
2023/09/01 10:44:44;;;;;;;;;;;;;;;15.94;74.44;100774.20;106000;1268;59745;-81
2023/09/01 10:47:30;;;;;;;;;;;;;;;15.97;74.80;100774.91;105870;1270;124919;-81
2023/09/01 10:49:59;;;;;;;;;;;;;;;16.08;75.09;100775.11;105890;1276;73591;-81
2023/09/01 10:52:28;;;;;;;;;;;;;;;16.15;75.14;100776.90;105823;1271;125391;-80
2023/09/01 10:55:03;;;;;;;;;;;;;;;16.25;75.16;100777.98;105886;1273;71695;-81
2023/09/01 10:57:42;;;;;;;;;;;;;;;16.32;75.17;100776.59;105884;1273;61288;-84
2023/09/01 11:00:28;;;;;;;;;;;;;;;16.41;75.10;100774.48;105767;1270;124765;-82
2023/09/01 11:03:14;;;;;;;;;;;;;;;16.53;75.18;100773.60;105831;1270;73438;-82
2023/09/01 11:05:40;;;;;;;;;;;;;;;16.64;75.12;100776.63;105848;1271;125449;-82
2023/09/01 11:08:17;;;;;;;;;;;;;;;16.69;75.00;100775.03;105839;1270;61428;-81
2023/09/01 11:10:44;;;;;;;;;;;;;;;16.73;74.95;100772.55;105830;1270;126266;-82
2023/09/01 11:13:17;;;;;;;;;;;;;;;16.76;74.79;100771.49;106031;1271;61272;-79
2023/09/01 11:15:47;;;;;;;;;;;;;;;16.79;74.89;100770.79;105920;1270;74003;-87
2023/09/01 11:18:20;;;;;;;;;;;;;;;16.80;74.80;100766.34;105873;1272;125019;-84
2023/09/01 11:20:47;;;;;;;;;;;;;;;16.82;74.77;100766.01;105613;1268;71496;-82
2023/09/01 11:23:20;;;;;;;;;;;;;;;16.82;74.67;100763.70;105709;1271;124460;-82
2023/09/01 11:25:47;;;;;;;;;;;;;;;16.82;74.79;100759.98;105848;1269;61384;-83
2023/09/01 11:28:14;;;;;;;;;;;;;;;16.84;74.76;100762.48;105656;1270;74519;-83
2023/09/01 11:30:53;;;;;;;;;;;;;;;16.88;74.89;100763.53;105803;1272;124024;-83
2023/09/01 11:33:21;;;;;;;;;;;;;;;16.95;74.87;100757.52;105829;1271;71795;-82
2023/09/01 11:35:49;;;;;;;;;;;;;;;17.01;74.76;100762.11;105757;1270;124313;-83
2023/09/01 11:38:19;;;;;;;;;;;;;;;17.06;74.83;100758.73;105755;1271;61451;-82
2023/09/01 11:40:49;;;;;;;;;;;;;;;17.17;74.94;100759.59;105724;1271;125092;-79
2023/09/01 11:43:24;;;;;;;;;;;;;;;17.39;75.07;100763.28;105802;1271;66308;-79
2023/09/01 11:45:51;;;;;;;;;;;;;;;17.66;74.90;100760.52;105913;1271;71119;-79
2023/09/01 11:48:22;;;;;;;;;;;;;;;17.93;75.02;100755.63;105737;1272;125144;-79
2023/09/01 11:50:49;;;;;;;;;;;;;;;18.23;74.55;100756.35;105807;1275;61358;-79
2023/09/01 11:53:23;;;;;;;;;;;;;;;18.50;74.47;100752.24;105509;1276;125886;-80
2023/09/01 11:55:52;;;;;;;;;;;;;;;18.83;74.40;100747.02;106008;1271;66026;-79
2023/09/01 11:58:19;;;;;;;;;;;;;;;19.18;74.31;100747.94;105702;1270;72770;-85
2023/09/01 12:00:46;;;;;;;;;;;;;;;19.56;73.90;100750.19;105647;1270;125373;-86
2023/09/01 12:03:12;;;;;;;;;;;;;;;19.83;73.11;100754.33;105786;1269;61314;-84
2023/09/01 12:05:39;;;;;;;;;;;;;;;20.01;72.38;100751.23;105611;1271;124110;-85
2023/09/01 12:08:07;;;;;;;;;;;;;;;20.13;72.20;100756.95;105837;1271;66300;-83
2023/09/01 12:10:34;;;;;;;;;;;;;;;20.22;71.71;100756.48;105645;1271;124227;-85
2023/09/01 12:13:03;;;;;;;;;;;;;;;20.21;71.39;100755.95;105597;1270;61292;-84
2023/09/01 12:15:30;;;;;;;;;;;;;;;20.25;71.28;100750.90;105844;1271;61173;-84
2023/09/01 12:17:56;;;;;;;;;;;;;;;20.25;70.70;100752.51;105666;1272;124699;-85
2023/09/01 12:20:23;;;;;;;;;;;;;;;20.20;70.61;100754.88;105783;1273;61269;-82
2023/09/01 12:22:50;;;;;;;;;;;;;;;20.20;70.72;100760.41;105646;1271;124376;-82
2023/09/01 12:25:17;;;;;;;;;;;;;;;20.28;70.73;100757.27;105082;1270;61326;-81
2023/09/01 12:27:47;;;;;;;;;;;;;;;20.44;70.81;100752.56;105240;1271;60426;-84
2023/09/01 12:30:14;;;;;;;;;;;;;;;20.54;70.37;100756.34;105993;1273;123225;-86